createdAt,value
2018-10-09T00:00:58.457Z,23.98
2018-10-09T00:01:58.453Z,24.37
2018-10-09T00:02:58.448Z,24.17
2018-10-09T00:03:58.442Z,24.27
2018-10-09T00:04:58.441Z,25.03
2018-10-09T00:05:58.471Z,25.89
2018-10-09T00:06:58.445Z,26.93
2018-10-09T00:07:58.464Z,27.88
2018-10-09T00:08:58.469Z,27.60
2018-10-09T00:09:58.453Z,26.65
2018-10-09T00:10:58.469Z,27.69
2018-10-09T00:11:58.466Z,31.98
2018-10-09T00:12:58.453Z,35.60
2018-10-09T00:13:58.450Z,38.54
2018-10-09T00:14:58.456Z,41.59
2018-10-09T00:15:58.443Z,45.21
2018-10-09T00:16:58.441Z,45.30
2018-10-09T00:17:58.459Z,47.97
2018-10-09T00:18:58.444Z,50.35
2018-10-09T00:19:58.491Z,49.01
2018-10-09T00:20:58.444Z,47.39
2018-10-09T00:21:58.445Z,46.83
2018-10-09T00:22:58.472Z,47.87
2018-10-09T00:23:58.446Z,49.58
2018-10-09T00:24:58.451Z,49.20
2018-10-09T00:25:58.529Z,48.06
2018-10-09T00:26:58.462Z,48.73
2018-10-09T00:27:58.477Z,46.83
2018-10-09T00:28:58.459Z,45.87
2018-10-09T00:29:58.471Z,49.58
2018-10-09T00:30:58.468Z,50.06
2018-10-09T00:31:58.466Z,50.35
2018-10-09T00:32:58.453Z,50.15
2018-10-09T00:33:58.462Z,49.96
2018-10-09T00:34:58.452Z,50.15
2018-10-09T00:35:58.467Z,50.06
2018-10-09T00:36:58.507Z,50.25
2018-10-09T00:37:58.454Z,48.35
2018-10-09T00:38:58.464Z,48.44
2018-10-09T00:39:58.488Z,47.20
2018-10-09T00:40:58.479Z,46.63
2018-10-09T00:41:58.456Z,46.15
2018-10-09T00:42:58.530Z,45.21
2018-10-09T00:43:58.483Z,43.68
2018-10-09T00:44:58.483Z,43.78
2018-10-09T00:45:58.463Z,42.64
2018-10-09T00:46:58.486Z,41.11
2018-10-09T00:47:58.490Z,40.23
2018-10-09T00:48:58.466Z,39.69
2018-10-09T00:49:58.474Z,39.31
2018-10-09T00:50:58.481Z,38.90
2018-10-09T00:51:58.460Z,38.92
2018-10-09T00:52:58.457Z,38.34
2018-10-09T00:53:58.465Z,37.69
2018-10-09T00:54:58.464Z,38.07
2018-10-09T00:55:58.473Z,37.97
2018-10-09T00:56:58.463Z,38.17
2018-10-09T00:57:58.492Z,39.12
2018-10-09T00:58:58.485Z,38.92
2018-10-09T00:59:58.583Z,39.31
2018-10-09T01:00:58.489Z,39.28
2018-10-09T01:01:58.481Z,38.90
2018-10-09T01:02:58.508Z,39.12
2018-10-09T01:03:58.482Z,39.09
2018-10-09T01:04:58.486Z,39.00
2018-10-09T01:05:58.496Z,38.24
2018-10-09T01:06:59.714Z,37.76
2018-10-09T01:07:59.181Z,36.81
2018-10-09T01:09:02.856Z,36.72
2018-10-09T01:10:01.154Z,36.24
2018-10-09T01:10:59.389Z,35.29
2018-10-09T01:11:59.869Z,36.62
2018-10-09T01:16:15.859Z,36.15
2018-10-09T01:17:03.720Z,35.58
2018-10-09T01:18:03.757Z,35.48
2018-10-09T01:19:03.737Z,35.67
2018-10-09T01:20:03.720Z,36.53
2018-10-09T01:21:03.760Z,36.91
2018-10-09T01:22:03.717Z,36.91
2018-10-09T01:23:03.730Z,36.91
2018-10-09T01:24:03.718Z,37.00
2018-10-09T01:25:03.704Z,36.62
2018-10-09T01:26:03.807Z,36.53
2018-10-09T01:27:03.723Z,37.00
2018-10-09T01:28:03.735Z,37.48
2018-10-09T01:29:03.721Z,37.76
2018-10-09T01:30:03.757Z,38.24
2018-10-09T01:31:03.721Z,39.48
2018-10-09T01:32:03.716Z,41.09
2018-10-09T01:33:03.727Z,41.09
2018-10-09T01:34:03.739Z,42.43
2018-10-09T01:35:03.765Z,41.28
2018-10-09T01:36:03.715Z,41.19
2018-10-09T01:37:03.710Z,40.05
2018-10-09T01:38:03.725Z,40.05
2018-10-09T01:39:03.730Z,39.28
2018-10-09T01:40:03.742Z,38.24
2018-10-09T01:41:03.739Z,38.34
2018-10-09T01:42:03.727Z,38.24
2018-10-09T01:43:03.736Z,39.00
2018-10-09T01:44:03.723Z,40.14
2018-10-09T01:45:03.745Z,39.48
2018-10-09T01:46:03.748Z,38.89
2018-10-09T01:47:03.794Z,38.22
2018-10-09T01:48:03.717Z,38.12
2018-10-09T01:49:03.714Z,38.03
2018-10-09T01:50:03.732Z,36.91
2018-10-09T01:51:03.777Z,37.08
2018-10-09T01:52:03.727Z,37.10
2018-10-09T01:53:03.782Z,36.43
2018-10-09T01:54:03.727Z,36.13
2018-10-09T01:55:03.718Z,35.27
2018-10-09T01:56:03.731Z,33.96
2018-10-09T01:57:03.733Z,34.13
2018-10-09T01:58:03.734Z,33.67
2018-10-09T01:59:03.727Z,33.10
2018-10-09T02:00:03.795Z,33.10
2018-10-09T02:01:03.839Z,32.70
2018-10-09T02:02:03.750Z,32.34
2018-10-09T02:03:03.715Z,32.24
2018-10-09T02:04:03.729Z,32.34
2018-10-09T02:05:03.718Z,32.43
2018-10-09T02:06:03.726Z,32.51
2018-10-09T02:07:03.721Z,31.20
2018-10-09T02:08:03.754Z,31.18
2018-10-09T02:09:03.742Z,30.99
2018-10-09T02:10:03.723Z,30.82
2018-10-09T02:11:03.756Z,31.10
2018-10-09T02:12:03.733Z,31.29
2018-10-09T02:13:03.894Z,31.20
2018-10-09T02:14:03.750Z,30.73
2018-10-09T02:15:03.792Z,31.39
2018-10-09T02:16:03.731Z,32.43
2018-10-09T02:17:03.744Z,32.53
2018-10-09T02:18:03.719Z,31.29
2018-10-09T02:19:03.770Z,31.01
2018-10-09T02:20:03.728Z,30.06
2018-10-09T02:21:03.741Z,29.96
2018-10-09T02:22:03.753Z,29.77
2018-10-09T02:23:03.718Z,28.81
2018-10-09T02:24:03.730Z,29.00
2018-10-09T02:25:03.738Z,29.20
2018-10-09T02:26:03.733Z,28.53
2018-10-09T02:27:03.740Z,28.63
2018-10-09T02:28:03.800Z,27.97
2018-10-09T02:29:03.732Z,27.30
2018-10-09T02:30:03.782Z,26.73
2018-10-09T02:31:03.744Z,27.01
2018-10-09T02:32:03.743Z,26.25
2018-10-09T02:33:03.755Z,26.05
2018-10-09T02:34:03.740Z,25.87
2018-10-09T02:35:03.787Z,26.05
2018-10-09T02:36:03.726Z,25.95
2018-10-09T02:37:03.747Z,26.05
2018-10-09T02:38:03.740Z,26.72
2018-10-09T02:39:03.731Z,27.19
2018-10-09T02:40:03.776Z,28.23
2018-10-09T02:41:03.767Z,28.90
2018-10-09T02:42:03.736Z,28.63
2018-10-09T02:43:03.728Z,29.57
2018-10-09T02:44:03.736Z,30.54
2018-10-09T02:45:03.758Z,31.85
2018-10-09T02:46:03.756Z,33.56
2018-10-09T02:47:03.758Z,33.67
2018-10-09T02:48:03.742Z,34.80
2018-10-09T02:49:03.781Z,36.89
2018-10-09T02:50:03.790Z,37.38
2018-10-09T02:51:03.739Z,38.81
2018-10-09T02:52:03.743Z,39.38
2018-10-09T02:53:03.770Z,40.23
2018-10-09T02:54:03.739Z,40.81
2018-10-09T02:55:03.795Z,42.04
2018-10-09T02:56:03.784Z,41.85
2018-10-09T02:57:03.754Z,41.66
2018-10-09T02:58:03.785Z,42.24
2018-10-09T02:59:03.803Z,42.24
2018-10-09T03:00:03.732Z,41.95
2018-10-09T03:01:03.759Z,41.85
2018-10-09T03:02:03.748Z,41.38
2018-10-09T03:03:03.761Z,41.28
2018-10-09T03:04:03.757Z,41.28
2018-10-09T03:05:03.770Z,41.47
2018-10-09T03:06:03.744Z,41.95
2018-10-09T03:07:03.728Z,41.66
2018-10-09T03:08:03.757Z,41.66
2018-10-09T03:09:03.734Z,41.38
2018-10-09T03:10:03.847Z,40.41
2018-10-09T03:11:03.747Z,40.03
2018-10-09T03:12:03.759Z,39.84
2018-10-09T03:13:03.757Z,39.45
2018-10-09T03:14:03.736Z,39.17
2018-10-09T03:15:03.733Z,39.26
2018-10-09T03:16:03.733Z,39.07
2018-10-09T03:17:03.789Z,39.57
2018-10-09T03:18:03.755Z,38.14
2018-10-09T03:19:03.746Z,39.07
2018-10-09T03:20:03.769Z,38.98
2018-10-09T03:21:03.750Z,39.17
2018-10-09T03:22:03.750Z,38.70
2018-10-09T03:23:03.746Z,39.36
2018-10-09T03:24:03.733Z,39.84
2018-10-09T03:25:03.770Z,39.17
2018-10-09T03:26:03.761Z,39.36
2018-10-09T03:27:03.765Z,38.89
2018-10-09T03:28:03.765Z,38.22
2018-10-09T03:29:03.772Z,37.37
2018-10-09T03:30:03.834Z,36.98
2018-10-09T03:31:03.757Z,36.89
2018-10-09T03:32:03.756Z,37.65
2018-10-09T03:33:03.744Z,37.65
2018-10-09T03:34:03.748Z,36.89
2018-10-09T03:35:03.737Z,36.79
2018-10-09T03:36:03.754Z,37.08
2018-10-09T03:37:03.738Z,36.89
2018-10-09T03:38:03.755Z,36.89
2018-10-09T03:39:03.765Z,37.27
2018-10-09T03:40:03.795Z,36.89
2018-10-09T03:41:03.760Z,36.89
2018-10-09T03:42:03.738Z,38.03
2018-10-09T03:43:03.744Z,39.07
2018-10-09T03:44:03.792Z,39.36
2018-10-09T03:45:03.824Z,39.86
2018-10-09T03:46:03.757Z,41.00
2018-10-09T03:47:03.821Z,40.79
2018-10-09T03:48:03.760Z,40.79
2018-10-09T03:49:03.766Z,41.17
2018-10-09T03:50:03.756Z,40.88
2018-10-09T03:51:03.762Z,40.79
2018-10-09T03:52:03.742Z,40.69
2018-10-09T03:53:03.775Z,40.59
2018-10-09T03:54:03.794Z,40.98
2018-10-09T03:55:03.759Z,40.50
2018-10-09T03:56:03.742Z,39.55
2018-10-09T03:57:03.754Z,39.45
2018-10-09T03:58:03.768Z,39.36
2018-10-09T03:59:03.742Z,37.65
2018-10-09T04:00:03.770Z,36.89
2018-10-09T04:01:03.734Z,36.32
2018-10-09T04:02:03.757Z,35.46
2018-10-09T04:03:03.782Z,34.89
2018-10-09T04:04:03.824Z,34.70
2018-10-09T04:05:03.747Z,34.61
2018-10-09T04:06:03.740Z,34.61
2018-10-09T04:07:03.884Z,34.23
2018-10-09T04:08:03.742Z,33.09
2018-10-09T04:09:03.855Z,33.18
2018-10-09T04:10:03.755Z,33.18
2018-10-09T04:11:03.752Z,33.09
2018-10-09T04:12:03.766Z,33.09
2018-10-09T04:13:03.750Z,32.32
2018-10-09T04:14:03.745Z,32.70
2018-10-09T04:15:03.785Z,32.42
2018-10-09T04:16:03.758Z,32.42
2018-10-09T04:17:03.744Z,32.42
2018-10-09T04:18:03.750Z,32.61
2018-10-09T04:19:03.753Z,32.42
2018-10-09T04:20:03.744Z,32.99
2018-10-09T04:21:03.750Z,32.99
2018-10-09T04:22:03.804Z,32.90
2018-10-09T04:23:03.802Z,32.99
2018-10-09T04:24:03.776Z,32.23
2018-10-09T04:25:03.788Z,31.47
2018-10-09T04:26:03.746Z,31.18
2018-10-09T04:27:03.746Z,30.43
2018-10-09T04:28:03.765Z,30.14
2018-10-09T04:29:03.757Z,29.85
2018-10-09T04:30:03.759Z,28.81
2018-10-09T04:31:03.743Z,28.81
2018-10-09T04:32:03.770Z,28.52
2018-10-09T04:33:03.742Z,28.33
2018-10-09T04:34:03.766Z,28.33
2018-10-09T04:35:03.962Z,28.42
2018-10-09T04:36:03.795Z,29.00
2018-10-09T04:37:03.767Z,28.42
2018-10-09T04:38:03.751Z,28.23
2018-10-09T04:39:03.774Z,27.95
2018-10-09T04:40:03.759Z,28.42
2018-10-09T04:41:03.771Z,27.76
2018-10-09T04:42:03.765Z,26.72
2018-10-09T04:43:03.765Z,26.14
2018-10-09T04:44:03.752Z,24.43
2018-10-09T04:45:03.745Z,22.81
2018-10-09T04:46:03.749Z,22.63
2018-10-09T04:47:03.762Z,22.34
2018-10-09T04:48:03.744Z,23.29
2018-10-09T04:49:03.769Z,22.63
2018-10-09T04:50:03.772Z,21.58
2018-10-09T04:51:03.777Z,19.87
2018-10-09T04:52:03.798Z,19.39
2018-10-09T04:53:03.795Z,18.73
2018-10-09T04:54:03.762Z,17.87
2018-10-09T04:55:03.749Z,17.78
2018-10-09T04:56:03.758Z,17.97
2018-10-09T04:57:03.827Z,17.97
2018-10-09T04:58:03.786Z,17.97
2018-10-09T04:59:03.777Z,18.35
2018-10-09T05:00:03.760Z,17.97
2018-10-09T05:01:03.752Z,18.16
2018-10-09T05:02:03.770Z,18.63
2018-10-09T05:03:03.767Z,18.92
2018-10-09T05:04:03.775Z,19.49
2018-10-09T05:05:03.754Z,19.49
2018-10-09T05:06:03.812Z,20.44
2018-10-09T05:07:03.757Z,20.92
2018-10-09T05:08:03.794Z,21.28
2018-10-09T05:09:03.770Z,19.48
2018-10-09T05:10:03.765Z,17.20
2018-10-09T05:11:03.785Z,12.16
2018-10-09T05:12:03.748Z,9.97
2018-10-09T05:13:03.782Z,9.50
2018-10-09T05:14:03.854Z,9.69
2018-10-09T05:15:03.748Z,9.69
2018-10-09T05:16:03.815Z,9.69
2018-10-09T05:17:03.770Z,9.88
2018-10-09T05:18:03.760Z,9.59
2018-10-09T05:19:03.758Z,9.03
2018-10-09T05:20:03.811Z,9.12
2018-10-09T05:21:03.748Z,8.93
2018-10-09T05:22:03.818Z,8.36
2018-10-09T05:23:03.782Z,7.42
2018-10-09T05:24:03.765Z,7.70
2018-10-09T05:25:03.742Z,7.32
2018-10-09T05:26:03.738Z,7.03
2018-10-09T05:27:03.758Z,6.74
2018-10-09T05:28:03.796Z,6.18
2018-10-09T05:29:03.759Z,5.22
2018-10-09T05:30:03.751Z,4.47
2018-10-09T05:31:04.993Z,4.47
2018-10-09T05:32:03.741Z,4.37
2018-10-09T05:33:03.754Z,4.47
2018-10-09T05:34:03.788Z,4.75
2018-10-09T05:35:03.775Z,5.41
2018-10-09T05:36:03.776Z,5.13
2018-10-09T05:37:03.770Z,4.94
2018-10-09T05:38:03.743Z,4.66
2018-10-09T05:39:03.774Z,4.37
2018-10-09T05:40:03.756Z,3.52
2018-10-09T05:41:03.759Z,2.94
2018-10-09T05:42:03.760Z,2.85
2018-10-09T05:43:03.767Z,2.37
2018-10-09T05:44:03.789Z,2.19
2018-10-09T05:45:03.853Z,1.52
2018-10-09T05:46:03.754Z,1.14
2018-10-09T05:47:03.787Z,0.76
2018-10-09T05:48:03.796Z,0.38
2018-10-09T05:49:03.758Z,0.00
2018-10-09T05:50:03.780Z,0.00
2018-10-09T05:51:03.748Z,0.00
2018-10-09T05:52:03.748Z,0.00
2018-10-09T05:53:03.787Z,0.00
2018-10-09T05:54:03.796Z,0.00
2018-10-09T05:55:03.751Z,0.00
2018-10-09T05:56:03.761Z,0.47
2018-10-09T05:57:03.753Z,0.95
2018-10-09T05:58:03.846Z,2.85
2018-10-09T05:59:03.763Z,3.99
2018-10-09T06:00:03.843Z,4.75
2018-10-09T06:01:03.796Z,5.04
2018-10-09T06:02:03.796Z,5.51
2018-10-09T06:03:03.789Z,5.22
2018-10-09T06:04:03.796Z,4.85
2018-10-09T06:05:03.791Z,5.22
2018-10-09T06:06:03.883Z,5.90
2018-10-09T06:07:03.751Z,7.04
2018-10-09T06:08:03.797Z,6.85
2018-10-09T06:09:03.780Z,7.99
2018-10-09T06:10:03.753Z,8.84
2018-10-09T06:11:03.769Z,10.08
2018-10-09T06:12:03.748Z,10.84
2018-10-09T06:13:03.752Z,12.27
2018-10-09T06:14:03.792Z,14.17
2018-10-09T06:15:03.774Z,15.50
2018-10-09T06:16:03.820Z,19.98
2018-10-09T06:17:03.796Z,22.92
2018-10-09T06:18:03.789Z,24.35
2018-10-09T06:19:03.783Z,30.26
2018-10-09T06:20:03.784Z,34.26
2018-10-09T06:21:03.763Z,38.54
2018-10-09T06:22:03.930Z,39.12
2018-10-09T06:23:03.764Z,41.49
2018-10-09T06:24:03.820Z,44.16
2018-10-09T06:25:03.764Z,45.21
2018-10-09T06:26:03.777Z,46.73
2018-10-09T06:27:03.741Z,46.73
2018-10-09T06:28:03.815Z,46.92
2018-10-09T06:29:03.759Z,47.87
2018-10-09T06:30:03.805Z,49.40
2018-10-09T06:31:03.779Z,50.92
2018-10-09T06:32:03.758Z,51.30
2018-10-09T06:33:03.764Z,51.58
2018-10-09T06:34:03.780Z,52.34
2018-10-09T06:35:03.771Z,53.49
2018-10-09T06:36:03.779Z,53.61
2018-10-09T06:37:03.780Z,54.82
2018-10-09T06:38:03.748Z,56.75
2018-10-09T06:39:03.783Z,58.56
2018-10-09T06:40:03.777Z,59.23
2018-10-09T06:41:03.757Z,60.46
2018-10-09T06:42:03.776Z,61.51
2018-10-09T06:43:03.753Z,61.51
2018-10-09T06:44:03.759Z,62.65
2018-10-09T06:45:03.762Z,62.65
2018-10-09T06:46:03.796Z,59.23
2018-10-09T06:47:03.767Z,58.08
2018-10-09T06:48:03.786Z,57.80
2018-10-09T06:49:03.794Z,58.84
2018-10-09T06:50:03.771Z,57.80
2018-10-09T06:51:03.760Z,56.85
2018-10-09T06:52:03.763Z,56.65
2018-10-09T06:53:03.762Z,56.75
2018-10-09T06:54:03.879Z,57.80
2018-10-09T06:55:03.786Z,56.37
2018-10-09T06:56:03.771Z,57.80
2018-10-09T06:57:03.757Z,57.89
2018-10-09T06:58:03.762Z,57.99
2018-10-09T06:59:03.799Z,58.97
2018-10-09T07:00:03.820Z,60.85
2018-10-09T07:01:03.767Z,60.21
2018-10-09T07:02:03.762Z,59.26
2018-10-09T07:03:03.776Z,59.03
2018-10-09T07:04:03.801Z,58.84
2018-10-09T07:05:03.771Z,57.45
2018-10-09T07:06:03.786Z,56.87
2018-10-09T07:07:03.821Z,57.07
2018-10-09T07:08:03.772Z,58.11
2018-10-09T07:09:03.761Z,59.16
2018-10-09T07:10:03.789Z,61.57
2018-10-09T07:11:03.911Z,65.20
2018-10-09T07:12:03.774Z,68.63
2018-10-09T07:13:03.802Z,74.38
2018-10-09T07:14:03.792Z,83.58
2018-10-09T07:15:03.846Z,87.63
2018-10-09T07:16:03.793Z,89.88
2018-10-09T07:17:03.801Z,86.02
2018-10-09T07:18:03.911Z,83.16
2018-10-09T07:19:03.988Z,85.58
2018-10-09T07:20:03.812Z,88.73
2018-10-09T07:21:03.917Z,90.21
2018-10-09T07:22:03.793Z,91.55
2018-10-09T07:23:03.827Z,91.31
2018-10-09T07:24:03.809Z,91.74
2018-10-09T07:25:04.223Z,95.98
2018-10-09T07:26:03.817Z,99.99
2018-10-09T07:27:03.783Z,99.99
2018-10-09T07:28:03.847Z,99.99
2018-10-09T07:29:03.844Z,99.99
2018-10-09T07:30:04.458Z,99.99
2018-10-09T07:31:03.834Z,99.99
2018-10-09T07:32:04.013Z,99.99
2018-10-09T07:33:04.007Z,99.99
2018-10-09T07:34:03.862Z,99.99
2018-10-09T07:35:03.889Z,99.99
2018-10-09T07:36:03.854Z,99.99
2018-10-09T07:37:03.872Z,99.99
2018-10-09T07:38:03.854Z,99.99
2018-10-09T07:39:03.939Z,99.54
2018-10-09T07:40:04.073Z,98.53
2018-10-09T07:41:03.827Z,98.43
2018-10-09T07:42:03.851Z,99.15
2018-10-09T07:43:03.864Z,98.67
2018-10-09T07:44:04.129Z,98.72
2018-10-09T07:45:03.871Z,98.82
2018-10-09T07:46:03.902Z,99.99
2018-10-09T07:47:03.871Z,99.99
2018-10-09T07:48:03.821Z,99.99
2018-10-09T07:49:04.492Z,99.82
2018-10-09T07:50:05.451Z,99.20
2018-10-09T07:51:03.848Z,98.14
2018-10-09T07:52:03.998Z,98.82
2018-10-09T07:53:03.885Z,98.57
2018-10-09T07:54:03.903Z,97.86
2018-10-09T07:55:03.917Z,97.66
2018-10-09T07:56:03.872Z,95.98
2018-10-09T07:57:03.923Z,95.45
2018-10-09T07:58:03.941Z,97.47
2018-10-09T07:59:03.914Z,97.52
2018-10-09T08:00:03.987Z,98.96
2018-10-09T08:01:04.024Z,99.99
2018-10-09T08:02:03.902Z,99.99
2018-10-09T08:03:03.934Z,99.99
2018-10-09T08:04:03.990Z,99.99
2018-10-09T08:05:04.021Z,99.99
2018-10-09T08:06:03.911Z,99.99
2018-10-09T08:07:03.927Z,99.99
2018-10-09T08:08:03.872Z,99.99
2018-10-09T08:09:04.530Z,99.63
2018-10-09T08:10:04.049Z,97.86
2018-10-09T08:11:04.661Z,97.28
2018-10-09T08:12:04.303Z,95.12
2018-10-09T08:13:03.892Z,94.40
2018-10-09T08:14:03.938Z,94.11
2018-10-09T08:15:04.842Z,94.93
2018-10-09T08:16:03.986Z,94.64
2018-10-09T08:17:04.159Z,93.92
2018-10-09T08:18:04.087Z,93.25
2018-10-09T08:19:04.537Z,91.47
2018-10-09T08:20:04.018Z,91.08
2018-10-09T08:21:04.899Z,91.71
2018-10-09T08:22:04.598Z,92.33
2018-10-09T08:23:04.268Z,93.15
2018-10-09T08:24:04.048Z,91.47
2018-10-09T08:25:09.814Z,89.83
2018-10-09T08:26:19.125Z,85.05
2018-10-09T08:27:05.861Z,83.51
2018-10-09T08:28:04.035Z,84.43
2018-10-09T08:29:04.233Z,84.10
2018-10-09T08:30:04.085Z,84.92
2018-10-09T08:31:03.997Z,88.01
2018-10-09T08:32:04.010Z,88.39
2018-10-09T08:33:03.993Z,90.84
2018-10-09T08:34:03.960Z,91.76
2018-10-09T08:35:03.978Z,95.26
2018-10-09T08:36:03.966Z,97.61
2018-10-09T08:37:04.091Z,99.99
2018-10-09T08:38:04.055Z,99.99
2018-10-09T08:39:04.131Z,99.99
2018-10-09T08:40:04.167Z,99.99
2018-10-09T08:41:04.014Z,99.99
2018-10-09T08:42:04.009Z,99.99
2018-10-09T08:43:04.805Z,99.99
2018-10-09T08:44:04.080Z,99.99
2018-10-09T08:45:04.004Z,99.99
2018-10-09T08:46:04.039Z,99.99
2018-10-09T08:47:04.007Z,99.99
2018-10-09T08:48:04.059Z,99.99
2018-10-09T08:49:04.221Z,99.99
2018-10-09T08:50:04.062Z,99.99
2018-10-09T08:51:04.083Z,99.99
2018-10-09T08:52:04.118Z,99.99
2018-10-09T08:53:04.079Z,99.99
2018-10-09T08:54:04.079Z,99.99
2018-10-09T08:55:04.289Z,99.99
2018-10-09T08:56:04.027Z,99.99
2018-10-09T08:57:05.041Z,99.99
2018-10-09T08:58:04.112Z,99.99
2018-10-09T08:59:04.510Z,99.99
2018-10-09T09:00:04.475Z,99.99
2018-10-09T09:01:04.128Z,99.99
2018-10-09T09:02:04.039Z,99.99
2018-10-09T09:03:04.073Z,99.99
2018-10-09T09:04:04.267Z,99.99
2018-10-09T09:05:04.061Z,99.99
2018-10-09T09:06:04.036Z,99.99
2018-10-09T09:07:04.069Z,99.99
2018-10-09T09:08:04.054Z,99.99
2018-10-09T09:09:04.070Z,99.99
2018-10-09T09:10:04.137Z,99.99
2018-10-09T09:11:04.047Z,99.99
2018-10-09T09:12:04.166Z,99.99
2018-10-09T09:13:04.208Z,99.99
2018-10-09T09:14:04.139Z,99.99
2018-10-09T09:15:04.057Z,96.51
2018-10-09T09:16:04.966Z,92.13
2018-10-09T09:17:04.150Z,88.91
2018-10-09T09:18:04.196Z,86.45
2018-10-09T09:19:04.222Z,85.93
2018-10-09T09:20:04.164Z,85.34
2018-10-09T09:21:04.140Z,83.84
2018-10-09T09:22:04.871Z,82.93
2018-10-09T09:23:04.117Z,83.85
2018-10-09T09:24:04.092Z,83.37
2018-10-09T09:25:04.131Z,83.08
2018-10-09T09:26:04.259Z,83.28
2018-10-09T09:27:04.210Z,84.53
2018-10-09T09:28:04.132Z,84.47
2018-10-09T09:29:04.230Z,83.16
2018-10-09T09:30:04.343Z,80.94
2018-10-09T09:31:04.873Z,80.60
2018-10-09T09:32:04.117Z,79.64
2018-10-09T09:33:04.152Z,80.22
2018-10-09T09:34:04.141Z,78.13
2018-10-09T09:35:04.204Z,75.95
2018-10-09T09:36:04.158Z,75.72
2018-10-09T09:37:04.137Z,77.81
2018-10-09T09:38:04.159Z,77.13
2018-10-09T09:39:04.236Z,77.71
2018-10-09T09:40:04.189Z,78.67
2018-10-09T09:41:04.197Z,77.71
2018-10-09T09:42:04.178Z,78.61
2018-10-09T09:43:04.235Z,75.64
2018-10-09T09:44:04.191Z,73.13
2018-10-09T09:45:04.226Z,72.39
2018-10-09T09:46:04.311Z,72.03
2018-10-09T09:47:04.214Z,75.59
2018-10-09T09:48:04.231Z,77.48
2018-10-09T09:49:04.268Z,78.21
2018-10-09T09:50:04.217Z,80.54
2018-10-09T09:51:04.231Z,82.57
2018-10-09T09:52:04.291Z,86.62
2018-10-09T09:53:04.315Z,91.24
2018-10-09T09:54:04.345Z,92.63
2018-10-09T09:55:04.317Z,94.64
2018-10-09T09:56:06.046Z,95.17
2018-10-09T09:57:04.263Z,95.79
2018-10-09T09:58:04.370Z,96.37
2018-10-09T09:59:04.438Z,96.47
2018-10-09T10:00:04.288Z,96.03
2018-10-09T10:01:04.325Z,92.52
2018-10-09T10:02:04.383Z,90.17
2018-10-09T10:03:04.352Z,88.48
2018-10-09T10:04:04.309Z,87.37
2018-10-09T10:05:08.654Z,86.22
2018-10-09T10:06:04.331Z,85.50
2018-10-09T10:07:04.319Z,88.00
2018-10-09T10:08:04.338Z,86.35
2018-10-09T10:09:04.528Z,85.20
2018-10-09T10:10:04.362Z,84.28
2018-10-09T10:11:04.338Z,81.09
2018-10-09T10:12:04.547Z,78.36
2018-10-09T10:13:06.364Z,76.15
2018-10-09T10:14:04.404Z,75.95
2018-10-09T10:15:04.471Z,76.63
2018-10-09T10:16:04.387Z,77.69
2018-10-09T10:17:04.456Z,77.07
2018-10-09T10:18:04.376Z,77.23
2018-10-09T10:19:04.397Z,78.33
2018-10-09T10:20:04.440Z,78.00
2018-10-09T10:21:04.407Z,77.88
2018-10-09T10:22:04.436Z,76.05
2018-10-09T10:23:04.445Z,75.62
2018-10-09T10:24:04.432Z,75.67
2018-10-09T10:25:04.506Z,75.82
2018-10-09T10:26:04.942Z,75.41
2018-10-09T10:27:04.459Z,74.44
2018-10-09T10:28:04.973Z,75.74
2018-10-09T10:29:04.517Z,74.51
2018-10-09T10:30:04.478Z,74.64
2018-10-09T10:31:04.493Z,73.61
2018-10-09T10:32:04.499Z,71.17
2018-10-09T10:33:04.505Z,69.62
2018-10-09T10:34:04.510Z,71.04
2018-10-09T10:35:04.521Z,70.20
2018-10-09T10:36:04.521Z,71.26
2018-10-09T10:37:04.556Z,70.50
2018-10-09T10:38:04.564Z,70.82
2018-10-09T10:39:04.561Z,68.18
2018-10-09T10:40:04.575Z,68.53
2018-10-09T10:41:04.573Z,69.01
2018-10-09T10:42:04.641Z,69.40
2018-10-09T10:43:04.583Z,67.08
2018-10-09T10:44:04.661Z,65.24
2018-10-09T10:45:04.615Z,68.05
2018-10-09T10:46:04.623Z,69.37
2018-10-09T10:47:04.626Z,68.63
2018-10-09T10:48:04.676Z,69.34
2018-10-09T10:49:04.686Z,67.72
2018-10-09T10:50:04.703Z,66.85
2018-10-09T10:51:04.685Z,65.01
2018-10-09T10:52:04.714Z,65.95
2018-10-09T10:53:04.706Z,66.82
2018-10-09T10:54:04.753Z,67.91
2018-10-09T10:55:04.829Z,69.04
2018-10-09T10:56:04.741Z,69.21
2018-10-09T10:57:04.823Z,68.01
2018-10-09T10:58:04.761Z,68.98
2018-10-09T10:59:05.031Z,69.24
2018-10-09T11:00:04.808Z,69.14
2018-10-09T11:01:04.818Z,69.53
2018-10-09T11:02:04.808Z,70.75
2018-10-09T11:03:04.814Z,72.06
2018-10-09T11:04:04.834Z,72.55
2018-10-09T11:05:04.852Z,72.71
2018-10-09T11:06:04.840Z,74.76
2018-10-09T11:07:04.866Z,74.82
2018-10-09T11:08:04.993Z,75.88
2018-10-09T11:09:04.880Z,76.45
2018-10-09T11:10:04.895Z,77.09
2018-10-09T11:11:04.892Z,77.92
2018-10-09T11:12:04.905Z,79.94
2018-10-09T11:13:04.916Z,80.68
2018-10-09T11:14:04.944Z,80.04
2018-10-09T11:15:04.981Z,79.23
2018-10-09T11:16:04.962Z,80.48
2018-10-09T11:17:04.962Z,82.17
2018-10-09T11:18:04.973Z,81.06
2018-10-09T11:19:04.989Z,81.10
2018-10-09T11:20:05.015Z,80.62
2018-10-09T11:21:05.534Z,80.48
2018-10-09T11:22:06.420Z,80.23
2018-10-09T11:23:05.044Z,80.68
2018-10-09T11:24:05.028Z,80.77
2018-10-09T11:25:05.053Z,81.35
2018-10-09T11:26:05.159Z,82.35
2018-10-09T11:27:05.062Z,79.94
2018-10-09T11:28:05.066Z,79.02
2018-10-09T11:29:05.088Z,78.06
2018-10-09T11:30:05.098Z,78.00
2018-10-09T11:31:05.086Z,78.15
2018-10-09T11:32:05.124Z,78.83
2018-10-09T11:33:05.162Z,80.04
2018-10-09T11:34:05.105Z,79.98
2018-10-09T11:35:05.145Z,80.23
2018-10-09T11:36:05.120Z,81.54
2018-10-09T11:37:05.178Z,82.31
2018-10-09T11:38:06.378Z,82.70
2018-10-09T11:39:05.139Z,83.33
2018-10-09T11:40:06.683Z,83.42
2018-10-09T11:41:05.122Z,83.72
2018-10-09T11:42:05.145Z,84.33
2018-10-09T11:43:05.200Z,84.23
2018-10-09T11:44:05.310Z,83.18
2018-10-09T11:45:05.965Z,82.98
2018-10-09T11:46:05.154Z,84.00
2018-10-09T11:47:05.277Z,85.39
2018-10-09T11:48:05.208Z,84.62
2018-10-09T11:49:05.575Z,83.47
2018-10-09T11:50:05.176Z,84.09
2018-10-09T11:51:05.194Z,84.47
2018-10-09T11:52:05.198Z,84.18
2018-10-09T11:53:05.188Z,83.70
2018-10-09T11:54:05.205Z,83.51
2018-10-09T11:55:05.203Z,83.12
2018-10-09T11:56:05.202Z,83.03
2018-10-09T11:57:05.208Z,84.38
2018-10-09T11:58:05.205Z,83.99
2018-10-09T11:59:05.241Z,83.99
2018-10-09T12:00:05.223Z,82.68
2018-10-09T12:01:05.234Z,82.59
2018-10-09T12:02:05.249Z,82.01
2018-10-09T12:03:05.259Z,84.32
2018-10-09T12:04:05.255Z,83.12
2018-10-09T12:05:05.257Z,82.54
2018-10-09T12:06:05.263Z,83.41
2018-10-09T12:07:05.258Z,84.28
2018-10-09T12:08:05.286Z,85.20
2018-10-09T12:09:05.384Z,85.43
2018-10-09T12:10:07.040Z,84.72
2018-10-09T12:11:05.276Z,86.26
2018-10-09T12:12:05.292Z,86.35
2018-10-09T12:13:05.320Z,86.35
2018-10-09T12:14:05.303Z,87.37
2018-10-09T12:15:05.306Z,88.81
2018-10-09T12:16:05.303Z,88.53
2018-10-09T12:17:05.303Z,89.97
2018-10-09T12:18:05.282Z,90.06
2018-10-09T12:19:05.294Z,90.73
2018-10-09T12:20:05.295Z,89.29
2018-10-09T12:21:05.315Z,89.72
2018-10-09T12:22:05.323Z,88.91
2018-10-09T12:23:05.305Z,90.35
2018-10-09T12:24:05.310Z,88.95
2018-10-09T12:25:05.365Z,90.01
2018-10-09T12:26:05.327Z,89.78
2018-10-09T12:27:05.388Z,90.16
2018-10-09T12:28:05.383Z,90.73
2018-10-09T12:29:05.337Z,91.03
2018-10-09T12:30:05.389Z,91.89
2018-10-09T12:31:05.355Z,90.93
2018-10-09T12:32:05.757Z,90.88
2018-10-09T12:33:05.368Z,90.06
2018-10-09T12:34:05.358Z,90.45
2018-10-09T12:35:05.547Z,89.97
2018-10-09T12:36:05.400Z,91.31
2018-10-09T12:37:05.376Z,91.36
2018-10-09T12:38:05.365Z,92.18
2018-10-09T12:39:05.385Z,92.18
2018-10-09T12:40:05.377Z,92.47
2018-10-09T12:41:05.451Z,91.99
2018-10-09T12:42:05.381Z,91.89
2018-10-09T12:43:05.386Z,91.80
2018-10-09T12:44:05.453Z,92.28
2018-10-09T12:45:05.378Z,92.18
2018-10-09T12:46:05.383Z,92.85
2018-10-09T12:47:05.474Z,95.07
2018-10-09T12:48:05.391Z,94.68
2018-10-09T12:49:05.411Z,92.95
2018-10-09T12:50:05.409Z,91.60
2018-10-09T12:51:05.505Z,91.41
2018-10-09T12:52:05.434Z,91.22
2018-10-09T12:53:05.519Z,90.64
2018-10-09T12:54:05.417Z,90.97
2018-10-09T12:55:05.440Z,90.45
2018-10-09T12:56:05.566Z,90.45
2018-10-09T12:57:05.514Z,90.93
2018-10-09T12:58:05.448Z,90.64